sensor_id;sensor_type;location;lat;lon;timestamp;temperature;humidity
10788;DHT22;5446;50.826;4.380;2022-08-05T00:01:18;20.20;99.90
10788;DHT22;5446;50.826;4.380;2022-08-05T00:03:49;20.20;99.90
10788;DHT22;5446;50.826;4.380;2022-08-05T00:06:15;20.20;99.90
10788;DHT22;5446;50.826;4.380;2022-08-05T00:08:42;20.30;99.90
10788;DHT22;5446;50.826;4.380;2022-08-05T00:11:10;20.40;99.90
10788;DHT22;5446;50.826;4.380;2022-08-05T00:13:37;20.40;99.90
10788;DHT22;5446;50.826;4.380;2022-08-05T00:16:04;20.40;99.90
10788;DHT22;5446;50.826;4.380;2022-08-05T00:18:30;20.30;99.90
10788;DHT22;5446;50.826;4.380;2022-08-05T00:20:56;20.30;99.90
10788;DHT22;5446;50.826;4.380;2022-08-05T00:23:22;20.30;99.90
10788;DHT22;5446;50.826;4.380;2022-08-05T00:25:48;20.40;99.90
10788;DHT22;5446;50.826;4.380;2022-08-05T00:28:15;20.40;99.90
10788;DHT22;5446;50.826;4.380;2022-08-05T00:30:41;20.40;99.90
10788;DHT22;5446;50.826;4.380;2022-08-05T00:33:07;20.30;99.90
10788;DHT22;5446;50.826;4.380;2022-08-05T00:35:33;20.30;99.90
10788;DHT22;5446;50.826;4.380;2022-08-05T00:37:59;20.30;99.90
10788;DHT22;5446;50.826;4.380;2022-08-05T00:40:26;20.20;99.90
10788;DHT22;5446;50.826;4.380;2022-08-05T00:42:53;20.20;99.90
10788;DHT22;5446;50.826;4.380;2022-08-05T00:45:18;20.20;99.90
10788;DHT22;5446;50.826;4.380;2022-08-05T00:47:44;20.20;99.90
10788;DHT22;5446;50.826;4.380;2022-08-05T00:50:10;20.20;99.90
10788;DHT22;5446;50.826;4.380;2022-08-05T00:52:36;20.10;99.90
10788;DHT22;5446;50.826;4.380;2022-08-05T00:55:03;20.10;99.90
10788;DHT22;5446;50.826;4.380;2022-08-05T00:57:29;20.10;99.90
10788;DHT22;5446;50.826;4.380;2022-08-05T00:59:54;20.10;99.90
10788;DHT22;5446;50.826;4.380;2022-08-05T01:02:20;20.00;99.90
10788;DHT22;5446;50.826;4.380;2022-08-05T01:04:46;19.90;99.90
10788;DHT22;5446;50.826;4.380;2022-08-05T01:07:11;19.90;99.90
10788;DHT22;5446;50.826;4.380;2022-08-05T01:09:37;19.70;99.90
10788;DHT22;5446;50.826;4.380;2022-08-05T01:12:06;19.60;99.90
10788;DHT22;5446;50.826;4.380;2022-08-05T01:14:44;19.60;99.90
10788;DHT22;5446;50.826;4.380;2022-08-05T01:17:19;19.60;99.90
10788;DHT22;5446;50.826;4.380;2022-08-05T01:20:12;19.60;99.90
10788;DHT22;5446;50.826;4.380;2022-08-05T01:33:47;19.60;99.90
10788;DHT22;5446;50.826;4.380;2022-08-05T01:36:15;19.60;99.90
10788;DHT22;5446;50.826;4.380;2022-08-05T01:38:44;19.60;99.90
10788;DHT22;5446;50.826;4.380;2022-08-05T01:41:13;19.60;99.90
10788;DHT22;5446;50.826;4.380;2022-08-05T01:43:41;19.50;99.90
10788;DHT22;5446;50.826;4.380;2022-08-05T01:46:08;19.50;99.90
10788;DHT22;5446;50.826;4.380;2022-08-05T01:48:35;19.50;99.90
10788;DHT22;5446;50.826;4.380;2022-08-05T01:51:02;19.50;99.90
10788;DHT22;5446;50.826;4.380;2022-08-05T01:53:30;19.50;99.90
10788;DHT22;5446;50.826;4.380;2022-08-05T01:55:59;19.50;99.90
10788;DHT22;5446;50.826;4.380;2022-08-05T01:58:26;19.50;99.90
10788;DHT22;5446;50.826;4.380;2022-08-05T02:00:53;19.50;99.90
10788;DHT22;5446;50.826;4.380;2022-08-05T02:03:24;19.50;99.90
10788;DHT22;5446;50.826;4.380;2022-08-05T02:05:52;19.40;99.90
10788;DHT22;5446;50.826;4.380;2022-08-05T02:08:19;19.40;99.90
10788;DHT22;5446;50.826;4.380;2022-08-05T02:10:50;19.50;99.90
10788;DHT22;5446;50.826;4.380;2022-08-05T02:13:26;19.50;99.90
10788;DHT22;5446;50.826;4.380;2022-08-05T02:16:13;19.50;99.90
10788;DHT22;5446;50.826;4.380;2022-08-05T02:18:43;19.50;99.90
10788;DHT22;5446;50.826;4.380;2022-08-05T02:21:17;19.50;99.90
10788;DHT22;5446;50.826;4.380;2022-08-05T02:23:47;19.50;99.90
10788;DHT22;5446;50.826;4.380;2022-08-05T02:26:18;19.50;99.90
10788;DHT22;5446;50.826;4.380;2022-08-05T02:28:45;19.50;99.90
10788;DHT22;5446;50.826;4.380;2022-08-05T02:31:18;19.50;99.90
10788;DHT22;5446;50.826;4.380;2022-08-05T02:34:00;19.50;99.90
10788;DHT22;5446;50.826;4.380;2022-08-05T02:36:27;19.50;99.90
10788;DHT22;5446;50.826;4.380;2022-08-05T02:38:55;19.40;99.90
10788;DHT22;5446;50.826;4.380;2022-08-05T02:41:24;19.40;99.90
10788;DHT22;5446;50.826;4.380;2022-08-05T02:43:51;19.40;99.90
10788;DHT22;5446;50.826;4.380;2022-08-05T02:46:19;19.40;99.90
10788;DHT22;5446;50.826;4.380;2022-08-05T02:48:46;19.40;99.90
10788;DHT22;5446;50.826;4.380;2022-08-05T02:51:14;19.40;99.90
10788;DHT22;5446;50.826;4.380;2022-08-05T02:53:41;19.40;99.90
10788;DHT22;5446;50.826;4.380;2022-08-05T02:56:11;19.40;99.90
10788;DHT22;5446;50.826;4.380;2022-08-05T02:58:41;19.40;99.90
10788;DHT22;5446;50.826;4.380;2022-08-05T03:01:16;19.30;99.90
10788;DHT22;5446;50.826;4.380;2022-08-05T03:03:51;19.30;99.90
10788;DHT22;5446;50.826;4.380;2022-08-05T03:06:19;19.30;99.90
10788;DHT22;5446;50.826;4.380;2022-08-05T03:08:45;19.30;99.90
10788;DHT22;5446;50.826;4.380;2022-08-05T03:11:25;19.20;99.90
10788;DHT22;5446;50.826;4.380;2022-08-05T03:13:52;19.20;99.90
10788;DHT22;5446;50.826;4.380;2022-08-05T03:16:19;19.20;99.90
10788;DHT22;5446;50.826;4.380;2022-08-05T03:18:45;19.30;99.90
10788;DHT22;5446;50.826;4.380;2022-08-05T03:21:11;19.30;99.90
10788;DHT22;5446;50.826;4.380;2022-08-05T03:23:38;19.30;99.90
10788;DHT22;5446;50.826;4.380;2022-08-05T03:26:05;19.20;99.90
10788;DHT22;5446;50.826;4.380;2022-08-05T03:28:31;19.20;99.90
10788;DHT22;5446;50.826;4.380;2022-08-05T03:30:59;19.20;99.90
10788;DHT22;5446;50.826;4.380;2022-08-05T03:33:27;19.30;99.90
10788;DHT22;5446;50.826;4.380;2022-08-05T03:35:54;19.20;99.90
10788;DHT22;5446;50.826;4.380;2022-08-05T03:38:26;19.20;99.90
10788;DHT22;5446;50.826;4.380;2022-08-05T03:40:52;19.20;99.90
10788;DHT22;5446;50.826;4.380;2022-08-05T03:43:18;19.20;99.90
10788;DHT22;5446;50.826;4.380;2022-08-05T03:45:45;19.20;99.90
10788;DHT22;5446;50.826;4.380;2022-08-05T03:48:10;19.20;99.90
10788;DHT22;5446;50.826;4.380;2022-08-05T03:54:16;19.10;99.90
10788;DHT22;5446;50.826;4.380;2022-08-05T03:56:47;19.20;99.90
10788;DHT22;5446;50.826;4.380;2022-08-05T03:59:20;19.10;99.90
10788;DHT22;5446;50.826;4.380;2022-08-05T04:01:49;19.20;99.90
10788;DHT22;5446;50.826;4.380;2022-08-05T04:04:19;19.20;99.90
10788;DHT22;5446;50.826;4.380;2022-08-05T04:06:46;19.20;99.90
10788;DHT22;5446;50.826;4.380;2022-08-05T04:09:14;19.10;99.90
10788;DHT22;5446;50.826;4.380;2022-08-05T04:11:40;19.10;99.90
10788;DHT22;5446;50.826;4.380;2022-08-05T04:14:06;19.10;99.90
10788;DHT22;5446;50.826;4.380;2022-08-05T04:16:33;19.10;99.90
10788;DHT22;5446;50.826;4.380;2022-08-05T04:19:02;19.20;99.90
10788;DHT22;5446;50.826;4.380;2022-08-05T04:21:28;19.10;99.90
10788;DHT22;5446;50.826;4.380;2022-08-05T04:23:55;19.00;99.90
10788;DHT22;5446;50.826;4.380;2022-08-05T04:26:20;19.10;99.90
10788;DHT22;5446;50.826;4.380;2022-08-05T04:28:46;19.00;99.90
10788;DHT22;5446;50.826;4.380;2022-08-05T04:31:12;19.00;99.90
10788;DHT22;5446;50.826;4.380;2022-08-05T04:33:37;19.00;99.90
10788;DHT22;5446;50.826;4.380;2022-08-05T04:36:03;18.90;99.90
10788;DHT22;5446;50.826;4.380;2022-08-05T04:38:29;18.90;99.90
10788;DHT22;5446;50.826;4.380;2022-08-05T04:40:55;18.90;99.90
10788;DHT22;5446;50.826;4.380;2022-08-05T04:43:20;18.80;99.90
10788;DHT22;5446;50.826;4.380;2022-08-05T04:45:46;18.80;99.90
10788;DHT22;5446;50.826;4.380;2022-08-05T04:48:13;18.90;99.90
10788;DHT22;5446;50.826;4.380;2022-08-05T04:50:47;18.90;99.90
10788;DHT22;5446;50.826;4.380;2022-08-05T04:53:14;18.90;99.90
10788;DHT22;5446;50.826;4.380;2022-08-05T04:55:41;19.00;99.90
10788;DHT22;5446;50.826;4.380;2022-08-05T04:58:09;18.90;99.90
10788;DHT22;5446;50.826;4.380;2022-08-05T05:00:36;18.90;99.90
10788;DHT22;5446;50.826;4.380;2022-08-05T05:03:03;18.90;99.90
10788;DHT22;5446;50.826;4.380;2022-08-05T05:05:30;18.90;99.90
10788;DHT22;5446;50.826;4.380;2022-08-05T05:08:00;19.00;99.90
10788;DHT22;5446;50.826;4.380;2022-08-05T05:10:26;19.00;99.90
10788;DHT22;5446;50.826;4.380;2022-08-05T05:12:52;19.00;99.90
10788;DHT22;5446;50.826;4.380;2022-08-05T05:15:18;18.90;99.90
10788;DHT22;5446;50.826;4.380;2022-08-05T05:17:44;19.00;99.90
10788;DHT22;5446;50.826;4.380;2022-08-05T05:20:11;18.90;99.90
10788;DHT22;5446;50.826;4.380;2022-08-05T05:22:37;19.00;99.90
10788;DHT22;5446;50.826;4.380;2022-08-05T05:25:03;19.00;99.90
10788;DHT22;5446;50.826;4.380;2022-08-05T05:27:32;19.00;99.90
10788;DHT22;5446;50.826;4.380;2022-08-05T05:29:58;19.00;99.90
10788;DHT22;5446;50.826;4.380;2022-08-05T05:32:23;19.00;99.90
10788;DHT22;5446;50.826;4.380;2022-08-05T05:34:49;19.10;99.90
10788;DHT22;5446;50.826;4.380;2022-08-05T05:37:21;19.00;99.90
10788;DHT22;5446;50.826;4.380;2022-08-05T05:39:46;19.10;99.90
10788;DHT22;5446;50.826;4.380;2022-08-05T05:42:12;19.10;99.90
10788;DHT22;5446;50.826;4.380;2022-08-05T05:44:38;19.10;99.90
10788;DHT22;5446;50.826;4.380;2022-08-05T05:47:04;19.00;99.90
10788;DHT22;5446;50.826;4.380;2022-08-05T05:49:29;19.00;99.90
10788;DHT22;5446;50.826;4.380;2022-08-05T05:51:55;19.00;99.90
10788;DHT22;5446;50.826;4.380;2022-08-05T05:54:21;19.10;99.90
10788;DHT22;5446;50.826;4.380;2022-08-05T05:56:47;19.10;99.90
10788;DHT22;5446;50.826;4.380;2022-08-05T05:59:12;19.20;99.90
10788;DHT22;5446;50.826;4.380;2022-08-05T06:01:40;19.20;99.90
10788;DHT22;5446;50.826;4.380;2022-08-05T06:04:10;19.00;99.90
10788;DHT22;5446;50.826;4.380;2022-08-05T06:06:36;19.00;99.90
10788;DHT22;5446;50.826;4.380;2022-08-05T06:09:04;19.00;99.90
10788;DHT22;5446;50.826;4.380;2022-08-05T06:11:33;19.00;99.90
10788;DHT22;5446;50.826;4.380;2022-08-05T06:13:59;19.00;99.90
10788;DHT22;5446;50.826;4.380;2022-08-05T06:16:25;18.90;99.90
10788;DHT22;5446;50.826;4.380;2022-08-05T06:18:51;19.00;99.90
10788;DHT22;5446;50.826;4.380;2022-08-05T06:21:17;19.00;99.90
10788;DHT22;5446;50.826;4.380;2022-08-05T06:23:43;19.10;99.90
10788;DHT22;5446;50.826;4.380;2022-08-05T06:26:09;19.20;99.90
10788;DHT22;5446;50.826;4.380;2022-08-05T06:28:34;19.20;99.90
10788;DHT22;5446;50.826;4.380;2022-08-05T06:31:01;19.30;99.90
10788;DHT22;5446;50.826;4.380;2022-08-05T06:33:27;19.30;99.90
10788;DHT22;5446;50.826;4.380;2022-08-05T06:35:53;19.30;99.90
10788;DHT22;5446;50.826;4.380;2022-08-05T06:38:18;19.30;99.90
10788;DHT22;5446;50.826;4.380;2022-08-05T06:40:44;19.40;99.90
10788;DHT22;5446;50.826;4.380;2022-08-05T06:43:10;19.40;99.90
10788;DHT22;5446;50.826;4.380;2022-08-05T06:45:36;19.40;99.90
10788;DHT22;5446;50.826;4.380;2022-08-05T06:48:02;19.40;99.90
10788;DHT22;5446;50.826;4.380;2022-08-05T06:50:28;19.30;99.90
10788;DHT22;5446;50.826;4.380;2022-08-05T06:52:53;19.20;99.90
10788;DHT22;5446;50.826;4.380;2022-08-05T06:55:19;19.20;99.90
10788;DHT22;5446;50.826;4.380;2022-08-05T06:57:45;19.30;99.90
10788;DHT22;5446;50.826;4.380;2022-08-05T07:00:11;19.40;99.90
10788;DHT22;5446;50.826;4.380;2022-08-05T07:02:43;19.50;99.90
10788;DHT22;5446;50.826;4.380;2022-08-05T07:05:10;19.50;99.90
10788;DHT22;5446;50.826;4.380;2022-08-05T07:07:41;19.50;99.90
10788;DHT22;5446;50.826;4.380;2022-08-05T07:10:09;19.40;99.90
10788;DHT22;5446;50.826;4.380;2022-08-05T07:12:35;19.40;99.90
10788;DHT22;5446;50.826;4.380;2022-08-05T07:15:19;19.40;99.90
10788;DHT22;5446;50.826;4.380;2022-08-05T07:18:04;19.60;99.90
10788;DHT22;5446;50.826;4.380;2022-08-05T07:20:30;19.70;99.90
10788;DHT22;5446;50.826;4.380;2022-08-05T07:22:55;19.80;99.90
10788;DHT22;5446;50.826;4.380;2022-08-05T07:25:21;19.80;99.90
10788;DHT22;5446;50.826;4.380;2022-08-05T07:27:48;19.80;99.90
10788;DHT22;5446;50.826;4.380;2022-08-05T07:30:14;19.60;99.90
10788;DHT22;5446;50.826;4.380;2022-08-05T07:32:40;19.60;99.90
10788;DHT22;5446;50.826;4.380;2022-08-05T07:35:13;19.70;99.90
10788;DHT22;5446;50.826;4.380;2022-08-05T07:37:39;19.90;99.90
10788;DHT22;5446;50.826;4.380;2022-08-05T07:40:06;20.10;99.90
10788;DHT22;5446;50.826;4.380;2022-08-05T07:42:32;20.20;99.90
10788;DHT22;5446;50.826;4.380;2022-08-05T07:44:58;20.40;99.90
10788;DHT22;5446;50.826;4.380;2022-08-05T07:47:24;20.30;99.90
10788;DHT22;5446;50.826;4.380;2022-08-05T07:49:49;20.20;99.90
10788;DHT22;5446;50.826;4.380;2022-08-05T07:52:19;20.20;99.90
10788;DHT22;5446;50.826;4.380;2022-08-05T07:54:45;20.20;99.90
10788;DHT22;5446;50.826;4.380;2022-08-05T07:57:10;20.10;99.90
10788;DHT22;5446;50.826;4.380;2022-08-05T07:59:36;20.10;99.90
10788;DHT22;5446;50.826;4.380;2022-08-05T08:02:02;20.00;99.90
10788;DHT22;5446;50.826;4.380;2022-08-05T08:04:28;20.10;99.90
10788;DHT22;5446;50.826;4.380;2022-08-05T08:06:54;20.10;99.90
10788;DHT22;5446;50.826;4.380;2022-08-05T08:09:20;20.10;99.90
10788;DHT22;5446;50.826;4.380;2022-08-05T08:11:46;20.10;99.90
10788;DHT22;5446;50.826;4.380;2022-08-05T08:14:11;20.20;99.90
10788;DHT22;5446;50.826;4.380;2022-08-05T08:16:37;20.10;99.90
10788;DHT22;5446;50.826;4.380;2022-08-05T08:19:03;20.20;99.90
10788;DHT22;5446;50.826;4.380;2022-08-05T08:21:28;20.30;99.90
10788;DHT22;5446;50.826;4.380;2022-08-05T08:23:54;20.40;99.90
10788;DHT22;5446;50.826;4.380;2022-08-05T08:26:20;20.40;99.90
10788;DHT22;5446;50.826;4.380;2022-08-05T08:28:46;20.40;99.90
10788;DHT22;5446;50.826;4.380;2022-08-05T08:31:12;20.50;99.90
10788;DHT22;5446;50.826;4.380;2022-08-05T08:33:37;20.60;99.90
10788;DHT22;5446;50.826;4.380;2022-08-05T08:36:06;20.90;99.90
10788;DHT22;5446;50.826;4.380;2022-08-05T08:38:32;21.10;99.90
10788;DHT22;5446;50.826;4.380;2022-08-05T08:40:59;21.20;99.90
10788;DHT22;5446;50.826;4.380;2022-08-05T08:43:26;21.40;99.90
10788;DHT22;5446;50.826;4.380;2022-08-05T08:45:53;21.30;99.90
10788;DHT22;5446;50.826;4.380;2022-08-05T08:48:19;21.20;99.90
10788;DHT22;5446;50.826;4.380;2022-08-05T08:50:46;21.20;99.90
10788;DHT22;5446;50.826;4.380;2022-08-05T08:53:15;21.50;99.90
10788;DHT22;5446;50.826;4.380;2022-08-05T08:55:41;21.20;99.90
10788;DHT22;5446;50.826;4.380;2022-08-05T08:58:08;21.20;99.90
10788;DHT22;5446;50.826;4.380;2022-08-05T09:00:35;21.30;99.90
10788;DHT22;5446;50.826;4.380;2022-08-05T09:03:01;21.30;99.90
10788;DHT22;5446;50.826;4.380;2022-08-05T09:05:29;21.40;99.90
10788;DHT22;5446;50.826;4.380;2022-08-05T09:07:54;21.30;99.90
10788;DHT22;5446;50.826;4.380;2022-08-05T09:10:21;21.30;99.90
10788;DHT22;5446;50.826;4.380;2022-08-05T09:12:47;21.30;99.90
10788;DHT22;5446;50.826;4.380;2022-08-05T09:15:13;21.20;99.90
10788;DHT22;5446;50.826;4.380;2022-08-05T09:17:39;20.80;99.90
10788;DHT22;5446;50.826;4.380;2022-08-05T09:20:05;20.80;99.90
10788;DHT22;5446;50.826;4.380;2022-08-05T09:25:32;21.40;99.90
10788;DHT22;5446;50.826;4.380;2022-08-05T09:28:21;21.70;99.90
10788;DHT22;5446;50.826;4.380;2022-08-05T09:34:09;21.90;99.90
10788;DHT22;5446;50.826;4.380;2022-08-05T09:36:47;21.60;99.90
10788;DHT22;5446;50.826;4.380;2022-08-05T09:39:19;21.40;99.90
10788;DHT22;5446;50.826;4.380;2022-08-05T09:44:37;21.10;99.90
10788;DHT22;5446;50.826;4.380;2022-08-05T09:47:14;21.20;99.90
10788;DHT22;5446;50.826;4.380;2022-08-05T09:49:45;21.40;99.90
10788;DHT22;5446;50.826;4.380;2022-08-05T09:52:24;21.60;99.90
10788;DHT22;5446;50.826;4.380;2022-08-05T09:54:53;21.70;99.90
10788;DHT22;5446;50.826;4.380;2022-08-05T09:57:30;21.70;99.90
10788;DHT22;5446;50.826;4.380;2022-08-05T10:00:10;22.00;99.90
10788;DHT22;5446;50.826;4.380;2022-08-05T10:02:42;22.00;99.90
10788;DHT22;5446;50.826;4.380;2022-08-05T10:07:48;21.80;99.90
10788;DHT22;5446;50.826;4.380;2022-08-05T10:10:15;21.90;99.90
10788;DHT22;5446;50.826;4.380;2022-08-05T10:12:46;22.00;99.90
10788;DHT22;5446;50.826;4.380;2022-08-05T10:15:17;22.00;99.90
10788;DHT22;5446;50.826;4.380;2022-08-05T10:17:43;22.10;99.90
10788;DHT22;5446;50.826;4.380;2022-08-05T10:20:10;22.00;99.90
10788;DHT22;5446;50.826;4.380;2022-08-05T10:22:41;22.10;99.90
10788;DHT22;5446;50.826;4.380;2022-08-05T10:25:07;22.00;99.90
10788;DHT22;5446;50.826;4.380;2022-08-05T10:27:34;22.20;99.90
10788;DHT22;5446;50.826;4.380;2022-08-05T10:29:59;22.30;99.90
10788;DHT22;5446;50.826;4.380;2022-08-05T10:32:25;22.10;99.90
10788;DHT22;5446;50.826;4.380;2022-08-05T10:34:51;22.30;99.90
10788;DHT22;5446;50.826;4.380;2022-08-05T10:37:17;22.40;99.90
10788;DHT22;5446;50.826;4.380;2022-08-05T10:39:44;22.60;99.90
10788;DHT22;5446;50.826;4.380;2022-08-05T10:42:21;22.60;99.90
10788;DHT22;5446;50.826;4.380;2022-08-05T10:44:47;22.50;99.90
10788;DHT22;5446;50.826;4.380;2022-08-05T10:47:14;22.20;99.90
10788;DHT22;5446;50.826;4.380;2022-08-05T10:50:03;22.00;99.90
10788;DHT22;5446;50.826;4.380;2022-08-05T10:55:09;22.60;99.90
10788;DHT22;5446;50.826;4.380;2022-08-05T10:57:35;22.70;99.90
10788;DHT22;5446;50.826;4.380;2022-08-05T11:00:17;22.70;99.90
10788;DHT22;5446;50.826;4.380;2022-08-05T11:05:34;22.60;99.90
10788;DHT22;5446;50.826;4.380;2022-08-05T11:08:05;22.60;99.90
10788;DHT22;5446;50.826;4.380;2022-08-05T11:10:33;22.70;99.90
10788;DHT22;5446;50.826;4.380;2022-08-05T11:13:02;22.80;99.90
10788;DHT22;5446;50.826;4.380;2022-08-05T11:15:35;22.90;99.90
10788;DHT22;5446;50.826;4.380;2022-08-05T11:20:49;23.40;99.90
10788;DHT22;5446;50.826;4.380;2022-08-05T11:23:50;23.30;99.90
10788;DHT22;5446;50.826;4.380;2022-08-05T11:28:49;23.30;99.90
10788;DHT22;5446;50.826;4.380;2022-08-05T11:36:15;22.90;99.90
10788;DHT22;5446;50.826;4.380;2022-08-05T11:41:14;22.70;99.90
10788;DHT22;5446;50.826;4.380;2022-08-05T11:44:04;22.90;99.90
10788;DHT22;5446;50.826;4.380;2022-08-05T11:46:52;23.20;99.90
10788;DHT22;5446;50.826;4.380;2022-08-05T11:49:20;23.00;99.90
10788;DHT22;5446;50.826;4.380;2022-08-05T11:51:48;22.80;99.90
10788;DHT22;5446;50.826;4.380;2022-08-05T11:54:26;22.70;99.90
10788;DHT22;5446;50.826;4.380;2022-08-05T11:56:55;22.60;99.90
10788;DHT22;5446;50.826;4.380;2022-08-05T11:59:26;22.40;99.90
10788;DHT22;5446;50.826;4.380;2022-08-05T12:04:22;22.80;99.90
10788;DHT22;5446;50.826;4.380;2022-08-05T12:06:48;22.90;99.90
10788;DHT22;5446;50.826;4.380;2022-08-05T12:09:17;22.70;99.90
10788;DHT22;5446;50.826;4.380;2022-08-05T12:11:45;22.60;99.90
10788;DHT22;5446;50.826;4.380;2022-08-05T12:14:11;22.40;99.90
10788;DHT22;5446;50.826;4.380;2022-08-05T12:16:40;22.60;99.90
10788;DHT22;5446;50.826;4.380;2022-08-05T12:19:08;22.50;99.90
10788;DHT22;5446;50.826;4.380;2022-08-05T12:21:44;22.50;99.90
10788;DHT22;5446;50.826;4.380;2022-08-05T12:24:13;22.60;99.90
10788;DHT22;5446;50.826;4.380;2022-08-05T12:26:51;22.60;99.90
10788;DHT22;5446;50.826;4.380;2022-08-05T12:29:23;22.70;99.90
10788;DHT22;5446;50.826;4.380;2022-08-05T12:31:50;23.00;99.90
10788;DHT22;5446;50.826;4.380;2022-08-05T12:34:17;23.10;99.90
10788;DHT22;5446;50.826;4.380;2022-08-05T12:36:44;22.90;99.90
10788;DHT22;5446;50.826;4.380;2022-08-05T12:39:11;22.60;99.90
10788;DHT22;5446;50.826;4.380;2022-08-05T12:41:38;22.70;99.90
10788;DHT22;5446;50.826;4.380;2022-08-05T12:44:06;22.70;99.90
10788;DHT22;5446;50.826;4.380;2022-08-05T12:46:33;22.60;99.90
10788;DHT22;5446;50.826;4.380;2022-08-05T12:49:13;22.60;99.90
10788;DHT22;5446;50.826;4.380;2022-08-05T12:51:58;22.60;99.90
10788;DHT22;5446;50.826;4.380;2022-08-05T12:54:31;22.70;99.90
10788;DHT22;5446;50.826;4.380;2022-08-05T12:59:30;22.80;99.90
10788;DHT22;5446;50.826;4.380;2022-08-05T13:02:03;22.90;99.90
10788;DHT22;5446;50.826;4.380;2022-08-05T13:04:32;23.00;99.90
10788;DHT22;5446;50.826;4.380;2022-08-05T13:07:00;23.10;99.90
10788;DHT22;5446;50.826;4.380;2022-08-05T13:09:27;23.30;99.90
10788;DHT22;5446;50.826;4.380;2022-08-05T13:12:15;23.40;99.90
10788;DHT22;5446;50.826;4.380;2022-08-05T13:14:50;23.60;99.90
10788;DHT22;5446;50.826;4.380;2022-08-05T13:17:23;23.70;99.90
10788;DHT22;5446;50.826;4.380;2022-08-05T13:20:10;23.80;99.90
10788;DHT22;5446;50.826;4.380;2022-08-05T13:22:41;23.70;99.90
10788;DHT22;5446;50.826;4.380;2022-08-05T13:25:10;23.90;99.90
10788;DHT22;5446;50.826;4.380;2022-08-05T13:27:42;23.70;99.90
10788;DHT22;5446;50.826;4.380;2022-08-05T13:30:13;23.50;99.90
10788;DHT22;5446;50.826;4.380;2022-08-05T13:32:39;23.50;99.90
10788;DHT22;5446;50.826;4.380;2022-08-05T13:35:05;23.40;99.90
10788;DHT22;5446;50.826;4.380;2022-08-05T13:37:31;23.20;99.90
10788;DHT22;5446;50.826;4.380;2022-08-05T13:39:57;23.00;99.90
10788;DHT22;5446;50.826;4.380;2022-08-05T13:42:24;23.10;99.90
10788;DHT22;5446;50.826;4.380;2022-08-05T13:44:50;23.00;99.90
10788;DHT22;5446;50.826;4.380;2022-08-05T13:47:16;23.00;99.90
10788;DHT22;5446;50.826;4.380;2022-08-05T13:49:42;23.30;99.90
10788;DHT22;5446;50.826;4.380;2022-08-05T13:52:12;23.50;99.90
10788;DHT22;5446;50.826;4.380;2022-08-05T13:54:39;23.20;99.90
10788;DHT22;5446;50.826;4.380;2022-08-05T13:57:05;23.10;99.90
10788;DHT22;5446;50.826;4.380;2022-08-05T13:59:31;23.20;99.90
10788;DHT22;5446;50.826;4.380;2022-08-05T14:01:58;23.50;99.90
10788;DHT22;5446;50.826;4.380;2022-08-05T14:04:24;23.80;99.90
10788;DHT22;5446;50.826;4.380;2022-08-05T14:07:08;23.60;99.90
10788;DHT22;5446;50.826;4.380;2022-08-05T14:09:35;23.60;99.90
10788;DHT22;5446;50.826;4.380;2022-08-05T14:12:02;23.50;99.90
10788;DHT22;5446;50.826;4.380;2022-08-05T14:14:28;23.60;99.90
10788;DHT22;5446;50.826;4.380;2022-08-05T14:16:54;23.80;99.90
10788;DHT22;5446;50.826;4.380;2022-08-05T14:19:20;24.00;99.90
10788;DHT22;5446;50.826;4.380;2022-08-05T14:21:45;24.00;99.90
10788;DHT22;5446;50.826;4.380;2022-08-05T14:24:11;23.80;99.90
10788;DHT22;5446;50.826;4.380;2022-08-05T14:26:37;23.70;99.90
10788;DHT22;5446;50.826;4.380;2022-08-05T14:29:04;23.60;99.90
10788;DHT22;5446;50.826;4.380;2022-08-05T14:31:30;23.70;99.90
10788;DHT22;5446;50.826;4.380;2022-08-05T14:33:56;23.20;99.90
10788;DHT22;5446;50.826;4.380;2022-08-05T14:36:21;23.10;99.90
10788;DHT22;5446;50.826;4.380;2022-08-05T14:38:48;23.10;99.90
10788;DHT22;5446;50.826;4.380;2022-08-05T14:41:14;23.30;99.90
10788;DHT22;5446;50.826;4.380;2022-08-05T14:43:39;23.30;99.90
10788;DHT22;5446;50.826;4.380;2022-08-05T14:46:05;23.60;99.90
10788;DHT22;5446;50.826;4.380;2022-08-05T14:48:31;23.50;99.90
10788;DHT22;5446;50.826;4.380;2022-08-05T14:50:56;23.70;99.90
10788;DHT22;5446;50.826;4.380;2022-08-05T14:53:22;23.60;99.90
10788;DHT22;5446;50.826;4.380;2022-08-05T14:55:48;23.10;99.90
10788;DHT22;5446;50.826;4.380;2022-08-05T14:58:14;23.00;99.90
10788;DHT22;5446;50.826;4.380;2022-08-05T15:00:40;23.10;99.90
10788;DHT22;5446;50.826;4.380;2022-08-05T15:03:06;23.20;99.90
10788;DHT22;5446;50.826;4.380;2022-08-05T15:05:33;23.40;99.90
10788;DHT22;5446;50.826;4.380;2022-08-05T15:08:00;23.50;99.90
10788;DHT22;5446;50.826;4.380;2022-08-05T15:10:27;23.40;99.90
10788;DHT22;5446;50.826;4.380;2022-08-05T15:12:52;23.40;99.90
10788;DHT22;5446;50.826;4.380;2022-08-05T15:15:18;23.10;99.90
10788;DHT22;5446;50.826;4.380;2022-08-05T15:17:44;23.00;99.90
10788;DHT22;5446;50.826;4.380;2022-08-05T15:20:11;23.10;99.90
10788;DHT22;5446;50.826;4.380;2022-08-05T15:22:37;23.30;99.90
10788;DHT22;5446;50.826;4.380;2022-08-05T15:25:04;23.10;99.90
10788;DHT22;5446;50.826;4.380;2022-08-05T15:27:30;23.40;99.90
10788;DHT22;5446;50.826;4.380;2022-08-05T15:29:56;23.40;99.90
10788;DHT22;5446;50.826;4.380;2022-08-05T15:32:23;22.90;99.90
10788;DHT22;5446;50.826;4.380;2022-08-05T15:34:49;22.60;99.90
10788;DHT22;5446;50.826;4.380;2022-08-05T15:37:15;22.60;99.90
10788;DHT22;5446;50.826;4.380;2022-08-05T15:39:41;22.40;99.90
10788;DHT22;5446;50.826;4.380;2022-08-05T15:42:06;22.50;99.90
10788;DHT22;5446;50.826;4.380;2022-08-05T15:44:38;22.30;99.90
10788;DHT22;5446;50.826;4.380;2022-08-05T15:47:06;23.00;99.90
10788;DHT22;5446;50.826;4.380;2022-08-05T15:49:31;22.80;99.90
10788;DHT22;5446;50.826;4.380;2022-08-05T15:51:57;23.50;99.90
10788;DHT22;5446;50.826;4.380;2022-08-05T15:54:23;24.00;99.90
10788;DHT22;5446;50.826;4.380;2022-08-05T15:56:49;23.50;99.90
10788;DHT22;5446;50.826;4.380;2022-08-05T15:59:14;23.50;99.90
10788;DHT22;5446;50.826;4.380;2022-08-05T16:01:41;23.70;99.90
10788;DHT22;5446;50.826;4.380;2022-08-05T16:04:06;23.60;99.90
10788;DHT22;5446;50.826;4.380;2022-08-05T16:06:34;24.40;99.90
10788;DHT22;5446;50.826;4.380;2022-08-05T16:09:00;24.40;99.90
10788;DHT22;5446;50.826;4.380;2022-08-05T16:11:26;24.40;99.90
10788;DHT22;5446;50.826;4.380;2022-08-05T16:13:52;24.70;99.90
10788;DHT22;5446;50.826;4.380;2022-08-05T16:16:18;24.20;99.90
10788;DHT22;5446;50.826;4.380;2022-08-05T16:18:45;23.60;99.90
10788;DHT22;5446;50.826;4.380;2022-08-05T16:21:11;23.70;99.90
10788;DHT22;5446;50.826;4.380;2022-08-05T16:23:36;24.00;99.60
10788;DHT22;5446;50.826;4.380;2022-08-05T16:26:06;24.30;98.90
10788;DHT22;5446;50.826;4.380;2022-08-05T16:28:33;24.50;98.20
10788;DHT22;5446;50.826;4.380;2022-08-05T16:30:59;23.70;99.90
10788;DHT22;5446;50.826;4.380;2022-08-05T16:33:25;23.40;99.90
10788;DHT22;5446;50.826;4.380;2022-08-05T16:35:53;23.50;99.90
10788;DHT22;5446;50.826;4.380;2022-08-05T16:38:19;23.10;99.90
10788;DHT22;5446;50.826;4.380;2022-08-05T16:40:44;22.50;99.90